KSRQ/SRQ METAR and TAF weather

Enter ICAO airport designator
Station Type Date Time Source
KSRQ METAR 2019/02/18 03:53 UTC NOAA

KSRQ 180353Z 16008KT 10SM CLR 23/20 A3000 RMK AO2 SLP157 T02280200


Station Type Date Time Source
KSRQ Decoded METAR 2019/02/18 03:53 UTC NOAA

SARASOTA/BRADENTON INTERNATIONAL ., FL, United States (KSRQ) 27-24N 082-33W 18M
Feb 17, 2019 - 10:53 PM EST / 2019.02.18 0353 UTC
Wind: from the SSE (160 degrees) at 9 MPH (8 KT):0
Visibility: 10 mile(s):0
Sky conditions: clear
Temperature: 73.0 F (22.8 C)
Dew Point: 68.0 F (20.0 C)
Relative Humidity: 84%
Pressure (altimeter): 30 in. Hg (1015 hPa)
ob: KSRQ 180353Z 16008KT 10SM CLR 23/20 A3000 RMK AO2 SLP157 T02280200
cycle: 4

Station Type Date Time Source
KSRQ TAF 2019/02/17 18:42 UTC NOAA

TAF KSRQ 171740Z 1718/1818 19017G25KT P6SM SCT030
FM172300 18011KT P6SM SCT030
FM180900 16008KT 5SM BR SCT010 SCT050
FM181400 19010KT P6SM BKN045


Example: see airport list